createdAt,value
2023-02-15T00:00:12.145Z,6.15
2023-02-15T00:02:41.040Z,6.10
2023-02-15T00:05:09.927Z,6.10
2023-02-15T00:07:38.141Z,5.98
2023-02-15T00:10:08.442Z,6.04
2023-02-15T00:12:36.651Z,6.05
2023-02-15T00:15:04.416Z,6.08
2023-02-15T00:17:32.409Z,6.09
2023-02-15T00:20:00.346Z,6.01
2023-02-15T00:22:29.012Z,6.09
2023-02-15T00:24:57.059Z,6.08
2023-02-15T00:27:25.576Z,6.18
2023-02-15T00:29:53.180Z,6.15
2023-02-15T00:32:21.650Z,6.16
2023-02-15T00:34:49.762Z,6.07
2023-02-15T00:37:17.966Z,6.03
2023-02-15T00:39:48.516Z,5.92
2023-02-15T00:42:16.141Z,5.96
2023-02-15T00:44:44.562Z,5.91
2023-02-15T00:47:12.233Z,5.85
2023-02-15T00:49:40.145Z,5.96
2023-02-15T00:52:08.219Z,5.96
2023-02-15T00:54:39.700Z,5.97
2023-02-15T00:57:07.523Z,6.07
2023-02-15T00:59:35.124Z,6.05
2023-02-15T01:02:03.206Z,6.14
2023-02-15T01:04:31.852Z,6.05
2023-02-15T01:07:00.447Z,6.10
2023-02-15T01:09:28.482Z,6.15
2023-02-15T01:11:57.669Z,6.17
2023-02-15T01:14:27.657Z,6.02
2023-02-15T01:16:55.203Z,5.80
2023-02-15T01:19:23.328Z,5.66
2023-02-15T01:21:50.949Z,5.86
2023-02-15T01:24:19.328Z,5.86
2023-02-15T01:26:47.520Z,5.96
2023-02-15T01:29:15.610Z,6.00
2023-02-15T01:31:43.612Z,5.99
2023-02-15T01:34:11.172Z,5.83
2023-02-15T01:36:40.430Z,5.66
2023-02-15T01:39:09.069Z,5.75
2023-02-15T01:41:37.044Z,5.79
2023-02-15T01:44:05.433Z,5.80
2023-02-15T01:46:46.358Z,5.56
2023-02-15T01:49:20.826Z,5.48
2023-02-15T01:51:53.503Z,5.56
2023-02-15T01:54:33.819Z,5.65
2023-02-15T01:57:05.962Z,5.57
2023-02-15T01:59:36.220Z,5.49
2023-02-15T02:02:07.206Z,5.43
2023-02-15T02:04:50.449Z,5.45
2023-02-15T02:07:27.831Z,5.36
2023-02-15T02:09:56.372Z,5.39
2023-02-15T02:12:27.110Z,5.32
2023-02-15T02:14:55.796Z,5.44
2023-02-15T02:17:46.259Z,5.47
2023-02-15T02:20:29.578Z,5.43
2023-02-15T02:23:09.710Z,5.60
2023-02-15T02:25:56.297Z,5.66
2023-02-15T02:28:25.541Z,5.53
2023-02-15T02:30:56.544Z,5.63
2023-02-15T02:33:34.358Z,5.53
2023-02-15T02:36:17.953Z,5.46
2023-02-15T02:39:01.384Z,5.59
2023-02-15T02:42:03.949Z,5.69
2023-02-15T02:45:04.003Z,5.69
2023-02-15T02:47:48.974Z,5.59
2023-02-15T02:50:20.162Z,5.52
2023-02-15T02:52:50.158Z,5.55
2023-02-15T02:55:30.754Z,5.52
2023-02-15T02:58:04.262Z,5.46
2023-02-15T03:00:56.192Z,5.40
2023-02-15T03:03:43.417Z,5.41
2023-02-15T03:06:20.093Z,5.49
2023-02-15T03:08:52.512Z,5.56
2023-02-15T03:11:20.589Z,5.61
2023-02-15T03:13:50.539Z,5.50
2023-02-15T03:16:27.490Z,5.47
2023-02-15T03:18:58.897Z,5.60
2023-02-15T03:21:37.284Z,5.63
2023-02-15T03:24:16.094Z,5.66
2023-02-15T03:26:48.509Z,5.58
2023-02-15T03:29:21.029Z,5.55
2023-02-15T03:32:02.758Z,5.45
2023-02-15T03:34:31.369Z,5.44
2023-02-15T03:37:24.428Z,5.46
2023-02-15T03:40:23.161Z,5.51
2023-02-15T03:42:59.697Z,5.47
2023-02-15T03:45:31.995Z,5.43
2023-02-15T03:48:02.590Z,5.44
2023-02-15T03:50:56.320Z,5.42
2023-02-15T03:53:26.351Z,5.29
2023-02-15T03:55:57.314Z,5.14
2023-02-15T03:58:43.917Z,5.10
2023-02-15T04:01:46.159Z,5.05
2023-02-15T04:04:21.002Z,4.96
2023-02-15T04:06:49.058Z,4.88
2023-02-15T04:09:35.107Z,4.91
2023-02-15T04:12:03.258Z,4.90
2023-02-15T04:14:50.042Z,5.05
2023-02-15T04:17:17.621Z,5.03
2023-02-15T04:20:04.113Z,5.09
2023-02-15T04:22:50.826Z,4.95
2023-02-15T04:25:19.578Z,4.91
2023-02-15T04:27:53.939Z,4.95
2023-02-15T04:30:25.170Z,5.09
2023-02-15T04:32:56.070Z,5.05
2023-02-15T04:35:24.108Z,4.95
2023-02-15T04:37:51.867Z,4.99
2023-02-15T04:40:19.905Z,4.97
2023-02-15T04:42:51.206Z,4.98
2023-02-15T04:45:19.509Z,4.94
2023-02-15T04:47:47.616Z,4.91
2023-02-15T04:50:16.022Z,5.04
2023-02-15T04:52:43.596Z,5.10
2023-02-15T04:55:11.800Z,4.97
2023-02-15T04:57:39.341Z,4.84
2023-02-15T05:00:09.540Z,4.71
2023-02-15T05:02:37.882Z,4.72
2023-02-15T05:05:06.310Z,4.64
2023-02-15T05:07:34.442Z,4.65
2023-02-15T05:10:02.440Z,4.56
2023-02-15T05:12:30.482Z,4.52
2023-02-15T05:14:58.100Z,4.51
2023-02-15T05:17:26.516Z,4.60
2023-02-15T05:19:54.738Z,4.61
2023-02-15T05:22:22.502Z,4.61
2023-02-15T05:25:08.969Z,4.55
2023-02-15T05:27:56.045Z,4.54
2023-02-15T05:30:23.770Z,4.49
2023-02-15T05:32:51.686Z,4.48
2023-02-15T05:35:19.814Z,4.52
2023-02-15T05:37:47.870Z,4.50
2023-02-15T05:40:16.521Z,4.48
2023-02-15T05:42:44.920Z,4.53
2023-02-15T05:45:12.760Z,4.46
2023-02-15T05:47:41.335Z,4.64
2023-02-15T05:50:10.989Z,4.55
2023-02-15T05:52:38.622Z,4.53
2023-02-15T05:55:06.912Z,4.49
2023-02-15T05:57:34.855Z,4.48
2023-02-15T06:00:05.403Z,4.40
2023-02-15T06:02:40.569Z,4.41
2023-02-15T06:05:10.217Z,4.40
2023-02-15T06:07:38.218Z,4.29
2023-02-15T06:10:06.950Z,4.30
2023-02-15T06:12:34.905Z,4.30
2023-02-15T06:15:03.636Z,4.35
2023-02-15T06:17:31.454Z,4.29
2023-02-15T06:19:59.460Z,4.33
2023-02-15T06:22:27.083Z,4.39
2023-02-15T06:24:54.631Z,4.51
2023-02-15T06:27:22.625Z,4.48
2023-02-15T06:29:50.267Z,4.69
2023-02-15T06:32:18.223Z,4.65
2023-02-15T06:34:48.510Z,4.72
2023-02-15T06:37:16.293Z,4.73
2023-02-15T06:39:45.201Z,4.77
2023-02-15T06:42:13.370Z,4.80
2023-02-15T06:44:41.461Z,4.88
2023-02-15T06:47:09.416Z,4.97
2023-02-15T06:49:38.375Z,4.98
2023-02-15T06:52:07.352Z,5.07
2023-02-15T06:54:35.045Z,5.16
2023-02-15T06:57:02.952Z,5.22
2023-02-15T06:59:30.639Z,5.30
2023-02-15T07:01:58.641Z,5.34
2023-02-15T07:04:27.049Z,5.47
2023-02-15T07:06:54.725Z,5.61
2023-02-15T07:09:23.562Z,5.78
2023-02-15T07:12:09.931Z,5.91
2023-02-15T07:14:37.426Z,6.01
2023-02-15T07:17:11.669Z,6.16
2023-02-15T07:19:43.155Z,6.30
2023-02-15T07:22:11.171Z,6.42
2023-02-15T07:24:39.320Z,6.44
2023-02-15T07:27:11.416Z,6.59
2023-02-15T07:29:39.752Z,6.77
2023-02-15T07:32:08.203Z,6.72
2023-02-15T07:34:35.756Z,6.96
2023-02-15T07:37:03.371Z,7.15
2023-02-15T07:39:31.811Z,7.36
2023-02-15T07:42:01.460Z,7.43
2023-02-15T07:44:32.299Z,7.54
2023-02-15T07:47:00.295Z,7.83
2023-02-15T07:49:27.789Z,7.93
2023-02-15T07:51:55.339Z,8.10
2023-02-15T07:54:23.809Z,8.34
2023-02-15T07:56:52.153Z,8.52
2023-02-15T07:59:19.719Z,8.62
2023-02-15T08:01:47.598Z,8.59
2023-02-15T08:04:15.705Z,8.84
2023-02-15T08:06:43.262Z,8.63
2023-02-15T08:09:15.470Z,8.81
2023-02-15T08:11:43.807Z,8.81
2023-02-15T08:14:15.063Z,8.89
2023-02-15T08:16:51.076Z,9.16
2023-02-15T08:19:29.741Z,8.97
2023-02-15T08:22:06.337Z,9.15
2023-02-15T08:24:38.313Z,9.29
2023-02-15T08:27:07.845Z,9.20
2023-02-15T08:29:37.336Z,9.35
2023-02-15T08:32:07.824Z,9.50
2023-02-15T08:34:38.651Z,9.72
2023-02-15T08:37:07.163Z,9.98
2023-02-15T08:39:35.081Z,10.04
2023-02-15T08:42:03.274Z,10.07
2023-02-15T08:44:30.988Z,10.31
2023-02-15T08:47:04.634Z,10.80
2023-02-15T08:49:32.994Z,11.11
2023-02-15T08:52:01.653Z,11.33
2023-02-15T08:54:29.594Z,11.55
2023-02-15T08:56:57.302Z,11.88
2023-02-15T08:59:27.782Z,12.07
2023-02-15T09:01:56.415Z,12.35
2023-02-15T09:04:24.445Z,12.53
2023-02-15T09:06:53.247Z,12.67
2023-02-15T09:09:22.376Z,13.67
2023-02-15T09:11:58.576Z,13.81
2023-02-15T09:14:28.402Z,14.31
2023-02-15T09:16:56.185Z,15.08
2023-02-15T09:19:25.534Z,16.27
2023-02-15T09:21:54.375Z,17.11
2023-02-15T09:24:22.488Z,17.97
2023-02-15T09:26:51.528Z,18.05
2023-02-15T09:29:20.169Z,18.68
2023-02-15T09:31:51.185Z,18.84
2023-02-15T09:34:22.214Z,19.06
2023-02-15T09:36:51.317Z,19.38
2023-02-15T09:39:29.263Z,18.78
2023-02-15T09:42:12.931Z,19.38
2023-02-15T09:45:08.008Z,19.16
2023-02-15T09:48:07.117Z,19.43
2023-02-15T09:51:13.255Z,19.54
2023-02-15T09:53:47.445Z,20.84
2023-02-15T09:56:46.239Z,21.30
2023-02-15T09:59:16.961Z,20.63
2023-02-15T10:02:18.347Z,21.43
2023-02-15T10:05:01.396Z,21.05
2023-02-15T10:07:57.010Z,20.61
2023-02-15T10:10:47.259Z,21.18
2023-02-15T10:13:20.977Z,21.96
2023-02-15T10:16:00.280Z,22.42
2023-02-15T10:18:39.252Z,23.38
2023-02-15T10:22:00.827Z,22.54
2023-02-15T10:25:00.150Z,22.06
2023-02-15T10:27:39.443Z,23.21
2023-02-15T10:30:14.422Z,23.01
2023-02-15T10:33:05.111Z,23.28
2023-02-15T10:36:13.185Z,23.16
2023-02-15T10:38:54.863Z,22.60
2023-02-15T10:41:42.994Z,20.90
2023-02-15T10:44:39.576Z,22.36
2023-02-15T10:47:31.967Z,22.50
2023-02-15T10:50:39.190Z,23.19
2023-02-15T10:53:26.483Z,22.36
2023-02-15T10:56:02.592Z,22.36
2023-02-15T10:58:45.956Z,22.16
2023-02-15T11:01:37.419Z,22.65
2023-02-15T11:04:11.979Z,22.37
2023-02-15T11:06:46.623Z,20.94
2023-02-15T11:09:21.753Z,22.62
2023-02-15T11:11:53.993Z,22.50
2023-02-15T11:14:49.237Z,22.65
2023-02-15T11:17:25.782Z,21.88
2023-02-15T11:20:21.743Z,20.94
2023-02-15T11:22:54.363Z,21.09
2023-02-15T11:25:29.850Z,21.26
2023-02-15T11:27:58.310Z,21.96
2023-02-15T11:30:44.790Z,22.24
2023-02-15T11:33:36.414Z,21.46
2023-02-15T11:36:13.158Z,21.69
2023-02-15T11:38:44.401Z,21.70
2023-02-15T11:41:16.475Z,22.05
2023-02-15T11:44:05.028Z,22.41
2023-02-15T11:46:33.209Z,21.92
2023-02-15T11:49:00.874Z,20.75
2023-02-15T11:51:29.862Z,22.03
2023-02-15T11:53:57.461Z,22.51
2023-02-15T11:56:27.309Z,22.91
2023-02-15T11:59:08.309Z,22.92
2023-02-15T12:01:46.629Z,23.29
2023-02-15T12:04:32.889Z,22.35
2023-02-15T12:07:12.732Z,22.45
2023-02-15T12:10:08.054Z,23.29
2023-02-15T12:12:36.996Z,23.20
2023-02-15T12:15:08.131Z,22.16
2023-02-15T12:17:41.006Z,23.61
2023-02-15T12:20:29.765Z,24.26
2023-02-15T12:23:08.265Z,23.45
2023-02-15T12:25:54.625Z,22.70
2023-02-15T12:28:28.458Z,23.74
2023-02-15T12:30:58.856Z,23.39
2023-02-15T12:33:35.272Z,23.37
2023-02-15T12:36:19.268Z,23.58
2023-02-15T12:39:04.389Z,22.70
2023-02-15T12:41:33.148Z,23.74
2023-02-15T12:44:20.815Z,23.60
2023-02-15T12:47:10.343Z,24.73
2023-02-15T12:49:39.490Z,24.46
2023-02-15T12:52:26.601Z,23.80
2023-02-15T12:54:54.696Z,23.91
2023-02-15T12:57:29.955Z,23.12
2023-02-15T13:00:26.265Z,24.32
2023-02-15T13:02:57.654Z,25.33
2023-02-15T13:05:39.759Z,24.18
2023-02-15T13:08:33.057Z,25.50
2023-02-15T13:11:10.394Z,25.53
2023-02-15T13:13:56.191Z,26.40
2023-02-15T13:16:40.897Z,24.56
2023-02-15T13:19:27.875Z,23.76
2023-02-15T13:21:58.691Z,23.75
2023-02-15T13:24:34.426Z,25.52
2023-02-15T13:27:15.033Z,26.62
2023-02-15T13:29:51.693Z,26.76
2023-02-15T13:32:38.117Z,24.76
2023-02-15T13:35:10.520Z,24.72
2023-02-15T13:37:56.448Z,26.53
2023-02-15T13:40:57.042Z,28.11
2023-02-15T13:43:30.340Z,28.39
2023-02-15T13:46:11.712Z,27.65
2023-02-15T13:49:06.399Z,27.36
2023-02-15T13:51:37.225Z,28.36
2023-02-15T13:54:29.050Z,28.52
2023-02-15T13:56:57.621Z,28.13
2023-02-15T13:59:50.315Z,27.67
2023-02-15T14:02:49.883Z,28.15
2023-02-15T14:05:27.087Z,26.12
2023-02-15T14:08:05.949Z,27.51
2023-02-15T14:10:51.008Z,27.22
2023-02-15T14:13:46.786Z,30.14
2023-02-15T14:16:43.028Z,30.43
2023-02-15T14:19:20.331Z,29.71
2023-02-15T14:21:52.075Z,31.31
2023-02-15T14:24:32.114Z,29.58
2023-02-15T14:27:12.173Z,31.56
2023-02-15T14:29:55.250Z,31.74
2023-02-15T14:32:36.836Z,30.21
2023-02-15T14:35:14.187Z,31.76
2023-02-15T14:37:52.662Z,31.49
2023-02-15T14:41:04.481Z,31.94
2023-02-15T14:43:53.735Z,30.44
2023-02-15T14:46:49.492Z,30.65
2023-02-15T14:49:23.286Z,31.46
2023-02-15T14:51:51.442Z,28.29
2023-02-15T14:54:18.942Z,29.21
2023-02-15T14:56:47.592Z,29.38
2023-02-15T14:59:19.529Z,30.48
2023-02-15T15:01:58.454Z,30.47
2023-02-15T15:04:49.052Z,30.85
2023-02-15T15:07:29.226Z,31.01
2023-02-15T15:10:04.185Z,31.22
2023-02-15T15:12:33.095Z,31.39
2023-02-15T15:15:02.316Z,30.40
2023-02-15T15:17:39.310Z,29.54
2023-02-15T15:20:26.540Z,28.56
2023-02-15T15:23:13.218Z,28.66
2023-02-15T15:26:18.395Z,27.25
2023-02-15T15:28:45.988Z,27.42
2023-02-15T15:31:35.104Z,26.61
2023-02-15T15:34:21.312Z,24.69
2023-02-15T15:37:20.717Z,22.64
2023-02-15T15:39:51.689Z,21.99
2023-02-15T15:42:56.130Z,21.16
2023-02-15T15:45:47.219Z,20.45
2023-02-15T15:48:33.522Z,20.01
2023-02-15T15:51:05.887Z,20.00
2023-02-15T15:53:43.265Z,19.07
2023-02-15T15:56:19.440Z,18.41
2023-02-15T15:58:53.523Z,18.01
2023-02-15T16:01:30.839Z,17.93
2023-02-15T16:04:00.207Z,17.94
2023-02-15T16:06:36.514Z,17.85
2023-02-15T16:09:29.555Z,17.55
2023-02-15T16:12:01.401Z,17.54
2023-02-15T16:14:37.776Z,17.43
2023-02-15T16:17:09.439Z,17.31
2023-02-15T16:19:42.257Z,17.06
2023-02-15T16:22:17.404Z,17.02
2023-02-15T16:25:02.531Z,16.79
2023-02-15T16:27:38.109Z,16.68
2023-02-15T16:30:24.598Z,16.53
2023-02-15T16:33:04.362Z,16.36
2023-02-15T16:35:33.263Z,16.16
2023-02-15T16:38:02.155Z,15.95
2023-02-15T16:41:04.492Z,15.78
2023-02-15T16:43:33.746Z,15.59
2023-02-15T16:46:13.021Z,15.33
2023-02-15T16:48:44.720Z,15.31
2023-02-15T16:51:21.674Z,15.15
2023-02-15T16:53:50.481Z,14.80
2023-02-15T16:56:25.275Z,14.64
2023-02-15T16:58:55.573Z,14.47
2023-02-15T17:01:26.769Z,14.40
2023-02-15T17:04:31.306Z,14.26
2023-02-15T17:07:18.008Z,14.17
2023-02-15T17:09:56.914Z,14.06
2023-02-15T17:12:47.891Z,13.92
2023-02-15T17:15:28.952Z,13.79
2023-02-15T17:18:13.270Z,13.68
2023-02-15T17:20:44.389Z,13.58
2023-02-15T17:23:33.430Z,13.41
2023-02-15T17:26:13.192Z,13.33
2023-02-15T17:28:49.169Z,13.18
2023-02-15T17:31:19.758Z,13.12
2023-02-15T17:33:49.375Z,13.05
2023-02-15T17:36:22.931Z,12.95
2023-02-15T17:39:03.869Z,12.86
2023-02-15T17:41:38.318Z,12.67
2023-02-15T17:44:08.609Z,12.61
2023-02-15T17:46:38.917Z,12.57
2023-02-15T17:49:07.538Z,12.51
2023-02-15T17:51:35.979Z,12.47
2023-02-15T17:54:23.452Z,12.40
2023-02-15T17:56:52.128Z,12.30
2023-02-15T17:59:20.512Z,12.15
2023-02-15T18:02:08.782Z,12.16
2023-02-15T18:04:56.447Z,12.01
2023-02-15T18:07:42.972Z,11.96
2023-02-15T18:10:35.334Z,11.83
2023-02-15T18:13:03.296Z,11.74
2023-02-15T18:15:31.542Z,11.65
2023-02-15T18:17:59.572Z,11.67
2023-02-15T18:20:34.907Z,11.74
2023-02-15T18:23:03.101Z,11.64
2023-02-15T18:25:31.147Z,11.60
2023-02-15T18:27:59.177Z,11.57
2023-02-15T18:30:28.111Z,11.50
2023-02-15T18:32:58.859Z,11.42
2023-02-15T18:35:31.039Z,11.32
2023-02-15T18:38:01.988Z,11.29
2023-02-15T18:40:29.769Z,11.29
2023-02-15T18:42:57.618Z,11.27
2023-02-15T18:45:32.466Z,11.23
2023-02-15T18:48:01.327Z,11.16
2023-02-15T18:50:34.303Z,11.09
2023-02-15T18:53:07.146Z,10.99
2023-02-15T18:55:35.624Z,10.95
2023-02-15T18:58:04.261Z,10.99
2023-02-15T19:00:35.074Z,10.97
2023-02-15T19:03:03.440Z,10.84
2023-02-15T19:05:33.315Z,10.78
2023-02-15T19:08:02.342Z,10.78
2023-02-15T19:10:32.598Z,10.76
2023-02-15T19:13:00.529Z,10.81
2023-02-15T19:15:30.613Z,10.80
2023-02-15T19:17:58.728Z,10.71
2023-02-15T19:20:30.679Z,10.55
2023-02-15T19:23:01.349Z,10.46
2023-02-15T19:25:32.780Z,10.44
2023-02-15T19:28:03.962Z,10.31
2023-02-15T19:30:33.210Z,10.26
2023-02-15T19:33:02.250Z,10.16
2023-02-15T19:35:35.325Z,10.09
2023-02-15T19:38:08.965Z,10.07
2023-02-15T19:40:37.230Z,10.00
2023-02-15T19:43:15.627Z,10.06
2023-02-15T19:45:45.369Z,10.09
2023-02-15T19:48:17.368Z,10.13
2023-02-15T19:50:47.122Z,10.04
2023-02-15T19:53:26.683Z,10.07
2023-02-15T19:55:55.444Z,9.99
2023-02-15T19:58:24.299Z,9.98
2023-02-15T20:00:52.270Z,10.07
2023-02-15T20:03:20.558Z,10.10
2023-02-15T20:05:48.438Z,10.10
2023-02-15T20:08:22.052Z,10.05
2023-02-15T20:10:49.854Z,9.95
2023-02-15T20:13:19.695Z,9.91
2023-02-15T20:15:50.922Z,9.79
2023-02-15T20:18:21.085Z,9.66
2023-02-15T20:20:53.242Z,9.72
2023-02-15T20:23:31.469Z,9.80
2023-02-15T20:26:01.357Z,9.71
2023-02-15T20:28:31.693Z,9.67
2023-02-15T20:31:00.106Z,9.66
2023-02-15T20:33:28.921Z,9.64
2023-02-15T20:35:57.503Z,9.62
2023-02-15T20:38:29.272Z,9.52
2023-02-15T20:41:18.162Z,9.41
2023-02-15T20:43:46.483Z,9.34
2023-02-15T20:46:14.644Z,9.39
2023-02-15T20:48:42.269Z,9.34
2023-02-15T20:51:18.486Z,9.20
2023-02-15T20:53:48.227Z,9.27
2023-02-15T20:56:21.359Z,9.33
2023-02-15T20:58:49.643Z,9.21
2023-02-15T21:01:20.030Z,9.10
2023-02-15T21:03:49.123Z,8.99
2023-02-15T21:06:18.284Z,8.83
2023-02-15T21:08:46.224Z,8.79
2023-02-15T21:11:22.786Z,8.84
2023-02-15T21:13:51.470Z,8.92
2023-02-15T21:16:20.259Z,9.03
2023-02-15T21:18:48.838Z,9.04
2023-02-15T21:21:23.807Z,9.01
2023-02-15T21:23:53.071Z,8.95
2023-02-15T21:26:23.421Z,8.90
2023-02-15T21:28:52.170Z,8.76
2023-02-15T21:31:25.650Z,8.62
2023-02-15T21:33:53.513Z,8.52
2023-02-15T21:36:24.460Z,8.46
2023-02-15T21:38:53.900Z,8.36
2023-02-15T21:41:42.845Z,8.29
2023-02-15T21:44:40.310Z,8.44
2023-02-15T21:47:48.642Z,8.52
2023-02-15T21:50:40.911Z,8.38
2023-02-15T21:53:12.996Z,8.44
2023-02-15T21:55:41.122Z,8.44
2023-02-15T21:58:19.543Z,8.37
2023-02-15T22:00:49.564Z,8.51
2023-02-15T22:03:17.394Z,8.50
2023-02-15T22:05:45.819Z,8.43
2023-02-15T22:08:14.415Z,8.49
2023-02-15T22:10:43.349Z,8.32
2023-02-15T22:13:26.415Z,8.33
2023-02-15T22:15:55.184Z,8.23
2023-02-15T22:18:28.907Z,8.21
2023-02-15T22:20:57.622Z,8.20
2023-02-15T22:23:25.973Z,8.21
2023-02-15T22:26:06.093Z,8.21
2023-02-15T22:28:37.063Z,8.08
2023-02-15T22:31:07.922Z,8.05
2023-02-15T22:33:36.023Z,7.98
2023-02-15T22:36:03.812Z,7.97
2023-02-15T22:38:31.402Z,7.96
2023-02-15T22:41:04.356Z,7.87
2023-02-15T22:43:39.134Z,7.79
2023-02-15T22:46:14.232Z,7.73
2023-02-15T22:48:43.832Z,7.67
2023-02-15T22:51:16.271Z,7.54
2023-02-15T22:53:44.364Z,7.64
2023-02-15T22:56:23.360Z,7.69
2023-02-15T22:58:51.761Z,7.71
2023-02-15T23:01:28.633Z,7.66
2023-02-15T23:03:56.827Z,7.71
2023-02-15T23:06:24.524Z,7.84
2023-02-15T23:08:54.861Z,7.80
2023-02-15T23:11:24.136Z,7.63
2023-02-15T23:13:51.672Z,7.49
2023-02-15T23:16:20.069Z,7.42
2023-02-15T23:18:49.303Z,7.47
2023-02-15T23:21:23.260Z,7.42
2023-02-15T23:23:53.023Z,7.33
2023-02-15T23:26:31.168Z,7.27
2023-02-15T23:29:01.596Z,7.51
2023-02-15T23:31:35.121Z,7.53
2023-02-15T23:34:13.360Z,7.63
2023-02-15T23:36:41.020Z,7.67
2023-02-15T23:39:39.171Z,7.58
2023-02-15T23:42:11.566Z,7.60
2023-02-15T23:44:43.298Z,7.62
2023-02-15T23:47:45.068Z,7.61
2023-02-15T23:50:28.577Z,7.61
2023-02-15T23:52:57.500Z,7.75
2023-02-15T23:55:38.706Z,7.60
2023-02-15T23:58:12.176Z,7.34
